Time;durP1;ratioP1;P1;durP2;ratioP2;P2;SDS_P1;SDS_P2;PMS_P1;PMS_P2;Temp;Humidity;BMP_temperature;BMP_pressure;BME280_temperature;BME280_humidity;BME280_pressure;Samples;Min_cycle;Max_cycle;Signal;HPM_P1;HPM_P2
2022/04/12 00:00:00;;;;;;;4.53;1.60;;;4.50;99.90;;;;;;5055965;28;20223;-40
2022/04/12 00:02:38;;;;;;;2.43;1.20;;;4.50;99.90;;;;;;5062301;28;20718;-39
2022/04/12 00:05:06;;;;;;;2.30;1.47;;;4.40;99.90;;;;;;5060579;28;20682;-40
2022/04/12 00:07:33;;;;;;;4.40;1.50;;;4.40;99.90;;;;;;5044751;28;20226;-41
2022/04/12 00:10:00;;;;;;;3.63;1.63;;;4.40;99.90;;;;;;5061086;28;20187;-41
2022/04/12 00:12:28;;;;;;;4.50;1.40;;;4.40;99.90;;;;;;5055780;28;20206;-40
2022/04/12 00:14:55;;;;;;;2.90;1.53;;;4.40;99.90;;;;;;5055841;28;20221;-40
2022/04/12 00:20:08;;;;;;;3.93;1.53;;;4.30;99.90;;;;;;5061704;28;20230;-44
2022/04/12 00:22:35;;;;;;;2.83;1.43;;;4.30;99.90;;;;;;5054339;28;20659;-41
2022/04/12 00:25:02;;;;;;;2.13;1.17;;;4.30;99.90;;;;;;5064799;28;20194;-41
2022/04/12 00:27:31;;;;;;;2.53;1.40;;;4.30;99.90;;;;;;5059720;28;20334;-46
2022/04/12 00:29:58;;;;;;;1.77;1.20;;;4.20;99.90;;;;;;5064094;28;20195;-41
2022/04/12 00:32:25;;;;;;;3.83;1.80;;;4.20;99.90;;;;;;5058850;28;20339;-40
2022/04/12 00:34:52;;;;;;;2.63;1.33;;;4.20;99.90;;;;;;5066793;28;20202;-39
2022/04/12 00:37:18;;;;;;;3.30;1.20;;;4.20;99.90;;;;;;5053427;28;20221;-40
2022/04/12 00:39:45;;;;;;;3.80;1.33;;;4.20;99.90;;;;;;5066570;28;20233;-41
2022/04/12 00:42:12;;;;;;;3.77;1.53;;;4.20;99.90;;;;;;5057145;28;20203;-41
2022/04/12 00:44:40;;;;;;;4.40;1.20;;;4.20;99.90;;;;;;5066461;28;20286;-43
2022/04/12 00:47:07;;;;;;;3.23;1.23;;;4.10;99.90;;;;;;5055792;28;20226;-42
2022/04/12 00:49:34;;;;;;;3.50;1.33;;;4.20;99.90;;;;;;5066008;28;20198;-41
2022/04/12 00:52:01;;;;;;;2.93;1.30;;;4.10;99.90;;;;;;5058260;28;20206;-40
2022/04/12 00:54:28;;;;;;;6.03;1.33;;;4.10;99.90;;;;;;5058159;28;20198;-42
2022/04/12 00:56:55;;;;;;;3.10;1.77;;;4.10;99.90;;;;;;5065260;28;20190;-41
2022/04/12 00:59:23;;;;;;;3.90;1.57;;;4.20;99.90;;;;;;5057891;28;20226;-45
2022/04/12 01:01:51;;;;;;;5.00;1.30;;;4.20;99.90;;;;;;5059382;28;20199;-41
2022/04/12 01:04:18;;;;;;;3.90;1.30;;;4.20;99.90;;;;;;5062179;28;20218;-42
2022/04/12 01:06:45;;;;;;;1.87;1.30;;;4.20;99.90;;;;;;5062336;28;20202;-41
2022/04/12 01:09:12;;;;;;;5.77;1.50;;;4.20;99.90;;;;;;5041426;28;20249;-41
2022/04/12 01:11:40;;;;;;;3.60;1.60;;;4.20;99.90;;;;;;5066028;28;20202;-41
2022/04/12 01:14:08;;;;;;;4.03;1.30;;;4.20;99.90;;;;;;5057788;28;20229;-41
2022/04/12 01:16:35;;;;;;;7.77;2.00;;;4.20;99.90;;;;;;5057108;28;20204;-41
2022/04/12 01:19:03;;;;;;;2.07;1.60;;;4.20;99.90;;;;;;5063513;28;20210;-41
2022/04/12 01:21:34;;;;;;;4.00;1.70;;;4.30;99.90;;;;;;5064123;28;20306;-45
2022/04/12 01:24:03;;;;;;;3.47;1.50;;;4.30;99.90;;;;;;5054182;28;20206;-42
2022/04/12 01:26:30;;;;;;;6.17;1.47;;;4.30;99.90;;;;;;5063153;28;20198;-43
2022/04/12 01:28:57;;;;;;;1.73;1.47;;;4.30;99.90;;;;;;5065292;28;20226;-40
2022/04/12 01:31:25;;;;;;;3.73;1.80;;;4.30;99.90;;;;;;5056174;28;20280;-43
2022/04/12 01:33:52;;;;;;;2.50;1.70;;;4.30;99.90;;;;;;5059581;28;20702;-42
2022/04/12 01:36:19;;;;;;;2.03;1.23;;;4.30;99.90;;;;;;5060882;28;20202;-46
2022/04/12 01:38:45;;;;;;;2.10;1.60;;;4.30;99.90;;;;;;5065612;28;20226;-43
2022/04/12 01:41:14;;;;;;;5.63;2.00;;;4.30;99.90;;;;;;5047180;28;20219;-41
2022/04/12 01:43:41;;;;;;;2.13;1.70;;;4.30;99.90;;;;;;5065230;28;20256;-42
2022/04/12 01:46:08;;;;;;;3.73;1.63;;;4.30;99.90;;;;;;5056391;28;20251;-43
2022/04/12 01:48:34;;;;;;;4.80;2.03;;;4.30;99.90;;;;;;5056720;28;20222;-46
2022/04/12 01:51:02;;;;;;;3.00;1.50;;;4.40;99.90;;;;;;5063584;28;20194;-44
2022/04/12 01:53:28;;;;;;;3.90;1.93;;;4.40;99.90;;;;;;5063643;28;20191;-44
2022/04/12 01:55:55;;;;;;;3.27;1.93;;;4.40;99.90;;;;;;5054246;28;20634;-43
2022/04/12 01:58:23;;;;;;;3.00;1.23;;;4.40;99.90;;;;;;5061486;28;20246;-43
2022/04/12 02:00:50;;;;;;;3.67;1.57;;;4.40;99.90;;;;;;5059252;28;20218;-43
2022/04/12 02:03:17;;;;;;;2.63;1.80;;;4.40;99.90;;;;;;5060450;28;20198;-40
2022/04/12 02:05:45;;;;;;;4.87;1.67;;;4.30;99.90;;;;;;5058459;28;20206;-44
2022/04/12 02:08:11;;;;;;;5.13;2.23;;;4.30;99.90;;;;;;5061161;28;20360;-42
2022/04/12 02:10:38;;;;;;;1.80;1.70;;;4.30;99.90;;;;;;5053529;28;20569;-40
2022/04/12 02:13:05;;;;;;;2.47;1.33;;;4.30;99.90;;;;;;5062042;28;20219;-42
2022/04/12 02:15:34;;;;;;;3.77;1.60;;;4.30;99.90;;;;;;5058258;28;22623;-44
2022/04/12 02:18:00;;;;;;;2.40;1.80;;;4.30;99.90;;;;;;5062470;28;20763;-45
2022/04/12 02:20:28;;;;;;;3.90;1.60;;;4.30;99.90;;;;;;5055225;28;20232;-40
2022/04/12 02:22:55;;;;;;;4.23;1.67;;;4.20;99.90;;;;;;5064410;28;20237;-41
2022/04/12 02:25:22;;;;;;;3.40;1.77;;;4.20;99.90;;;;;;5048282;28;20946;-39
2022/04/12 02:27:49;;;;;;;4.00;1.63;;;4.20;99.90;;;;;;5068001;28;20583;-44
2022/04/12 02:30:16;;;;;;;4.43;2.07;;;4.20;99.90;;;;;;5060130;28;20186;-41
2022/04/12 02:32:44;;;;;;;2.07;1.47;;;4.20;99.90;;;;;;5053599;28;21187;-44
2022/04/12 02:35:12;;;;;;;2.83;1.60;;;4.20;99.90;;;;;;5055328;28;20308;-42
2022/04/12 02:37:39;;;;;;;4.20;1.70;;;4.10;99.90;;;;;;5058533;28;20745;-45
2022/04/12 02:40:07;;;;;;;3.67;1.40;;;4.10;99.90;;;;;;5061750;28;20679;-40
2022/04/12 02:42:34;;;;;;;2.77;1.63;;;4.10;99.90;;;;;;5046558;28;20248;-45
2022/04/12 02:45:01;;;;;;;3.07;1.97;;;4.10;99.90;;;;;;5062187;28;20195;-41
2022/04/12 02:47:28;;;;;;;3.67;1.83;;;4.10;99.90;;;;;;5056328;28;20222;-40
2022/04/12 02:49:57;;;;;;;4.13;2.10;;;4.00;99.90;;;;;;5065100;28;20205;-42
2022/04/12 02:52:24;;;;;;;2.07;1.60;;;4.10;99.90;;;;;;5055789;28;20406;-41
2022/04/12 02:54:51;;;;;;;5.73;2.03;;;4.00;99.90;;;;;;5062215;28;20210;-42
2022/04/12 02:57:17;;;;;;;2.03;1.60;;;4.00;99.90;;;;;;5046198;28;20989;-41
2022/04/12 02:59:45;;;;;;;3.47;1.70;;;4.00;99.90;;;;;;5068921;28;20195;-41
2022/04/12 03:02:12;;;;;;;2.63;1.70;;;4.00;99.90;;;;;;5059387;28;20202;-40
2022/04/12 03:04:40;;;;;;;1.67;1.57;;;4.00;99.90;;;;;;5058371;28;20210;-43
2022/04/12 03:07:08;;;;;;;3.80;1.50;;;4.00;99.90;;;;;;5054522;28;20696;-41
2022/04/12 03:09:36;;;;;;;4.93;2.20;;;4.00;99.90;;;;;;5060835;28;20234;-41
2022/04/12 03:12:04;;;;;;;4.13;1.90;;;4.00;99.90;;;;;;5060147;28;20606;-42
2022/04/12 03:14:31;;;;;;;3.53;1.90;;;4.00;99.90;;;;;;5045311;28;20198;-45
2022/04/12 03:16:58;;;;;;;3.27;1.80;;;4.10;99.90;;;;;;5061150;28;20252;-42
2022/04/12 03:19:25;;;;;;;4.27;1.97;;;4.10;99.90;;;;;;5054930;28;20501;-43
2022/04/12 03:21:52;;;;;;;5.20;2.17;;;4.10;99.90;;;;;;5063530;28;20550;-42
2022/04/12 03:24:22;;;;;;;2.20;1.77;;;4.10;99.90;;;;;;5054129;28;20190;-43
2022/04/12 03:26:49;;;;;;;3.50;2.07;;;4.10;99.90;;;;;;5062962;28;20199;-40
2022/04/12 03:29:16;;;;;;;3.00;1.73;;;4.20;99.90;;;;;;5045432;28;20653;-45
2022/04/12 03:31:43;;;;;;;2.37;2.13;;;4.20;99.90;;;;;;5061546;28;20647;-40
2022/04/12 03:34:11;;;;;;;4.63;1.97;;;4.30;99.90;;;;;;5054770;28;20194;-40
2022/04/12 03:36:38;;;;;;;5.73;2.70;;;4.30;99.90;;;;;;5062517;28;20285;-45
2022/04/12 03:39:05;;;;;;;4.43;1.90;;;4.30;99.90;;;;;;5056512;28;20706;-41
2022/04/12 03:41:34;;;;;;;2.87;1.83;;;4.30;99.90;;;;;;5062144;28;20226;-40
2022/04/12 03:44:01;;;;;;;4.20;1.90;;;4.30;99.90;;;;;;5061468;28;20197;-41
2022/04/12 03:46:27;;;;;;;4.93;2.00;;;4.30;99.90;;;;;;5044113;28;20191;-41
2022/04/12 03:48:54;;;;;;;3.03;1.97;;;4.30;99.90;;;;;;5062252;28;20221;-43
2022/04/12 03:51:21;;;;;;;6.77;1.93;;;4.30;99.90;;;;;;5054560;28;20197;-42
2022/04/12 03:53:49;;;;;;;3.70;2.33;;;4.30;99.90;;;;;;5056025;28;20222;-41
2022/04/12 03:56:16;;;;;;;2.70;1.73;;;4.30;99.90;;;;;;5058453;28;20847;-45
2022/04/12 03:58:44;;;;;;;6.17;2.10;;;4.30;99.90;;;;;;5063125;28;20222;-42
2022/04/12 04:01:11;;;;;;;3.67;1.87;;;4.30;99.90;;;;;;5046321;28;20299;-42
2022/04/12 04:03:38;;;;;;;3.60;1.90;;;4.30;99.90;;;;;;5062172;28;20244;-42
2022/04/12 04:06:06;;;;;;;4.23;1.90;;;4.30;99.90;;;;;;5045922;28;20574;-42
2022/04/12 04:08:33;;;;;;;3.10;2.00;;;4.30;99.90;;;;;;5056608;28;20218;-42
2022/04/12 04:11:00;;;;;;;3.13;2.00;;;4.30;99.90;;;;;;5049798;28;20195;-41
2022/04/12 04:13:30;;;;;;;4.07;1.93;;;4.30;99.90;;;;;;5061834;28;20751;-41
2022/04/12 04:15:58;;;;;;;2.77;2.17;;;4.30;99.90;;;;;;5053231;28;20201;-41
2022/04/12 04:18:24;;;;;;;5.90;2.33;;;4.30;99.90;;;;;;5051675;28;20229;-42
2022/04/12 04:20:52;;;;;;;3.90;2.20;;;4.30;99.90;;;;;;5061473;28;20222;-41
2022/04/12 04:23:19;;;;;;;2.97;1.70;;;4.30;99.90;;;;;;5053716;28;20502;-41
2022/04/12 04:25:45;;;;;;;4.97;2.43;;;4.30;99.90;;;;;;5053647;28;20202;-46
2022/04/12 04:28:12;;;;;;;3.43;2.50;;;4.20;99.90;;;;;;5052752;28;20214;-40
2022/04/12 04:30:44;;;;;;;2.33;1.93;;;4.20;99.90;;;;;;5057357;28;20199;-42
2022/04/12 04:33:14;;;;;;;3.67;2.07;;;4.20;99.90;;;;;;5043776;28;20273;-43
2022/04/12 04:35:41;;;;;;;3.30;1.97;;;4.20;99.90;;;;;;5054248;28;20194;-41
2022/04/12 04:38:08;;;;;;;3.93;2.00;;;4.20;99.90;;;;;;5052778;28;20216;-41
2022/04/12 04:40:35;;;;;;;2.43;2.07;;;4.20;99.90;;;;;;5056668;28;20226;-41
2022/04/12 04:43:02;;;;;;;4.63;1.90;;;4.30;99.90;;;;;;5054509;28;20209;-44
2022/04/12 04:45:29;;;;;;;3.83;2.30;;;4.20;99.90;;;;;;5060870;28;20301;-41
2022/04/12 04:47:58;;;;;;;2.93;2.00;;;4.20;99.90;;;;;;5058483;28;20287;-43
2022/04/12 04:50:27;;;;;;;4.67;2.30;;;4.20;99.90;;;;;;5060904;28;20274;-43
2022/04/12 04:52:54;;;;;;;7.27;2.50;;;4.30;99.90;;;;;;5059104;28;20210;-41
2022/04/12 04:55:21;;;;;;;2.70;2.33;;;4.30;99.90;;;;;;5048369;28;20202;-42
2022/04/12 04:57:48;;;;;;;3.53;2.37;;;4.30;99.90;;;;;;5061099;28;20226;-42
2022/04/12 05:00:17;;;;;;;2.73;2.50;;;4.40;99.90;;;;;;5048825;28;20205;-42
2022/04/12 05:02:44;;;;;;;2.60;1.90;;;4.40;99.90;;;;;;5057332;28;20223;-42
2022/04/12 05:05:11;;;;;;;7.13;2.40;;;4.40;99.90;;;;;;5045497;28;20229;-41
2022/04/12 05:07:41;;;;;;;5.43;2.60;;;4.50;99.90;;;;;;5060498;28;20303;-45
2022/04/12 05:10:12;;;;;;;3.87;2.73;;;4.50;99.90;;;;;;5060476;28;20198;-42
2022/04/12 05:12:39;;;;;;;4.27;2.60;;;4.60;99.90;;;;;;5055736;28;20206;-42
2022/04/12 05:15:07;;;;;;;4.27;2.40;;;4.60;99.90;;;;;;5057579;28;20191;-42
2022/04/12 05:17:34;;;;;;;3.07;2.20;;;4.70;99.90;;;;;;5062578;28;20717;-40
2022/04/12 05:20:00;;;;;;;3.53;2.87;;;4.70;99.90;;;;;;5047350;28;20191;-40
2022/04/12 05:22:28;;;;;;;3.60;2.57;;;4.80;99.90;;;;;;5065538;28;20254;-42
2022/04/12 05:24:56;;;;;;;4.10;2.77;;;4.90;99.90;;;;;;5055650;28;20205;-43
2022/04/12 05:27:23;;;;;;;5.00;2.93;;;4.90;99.90;;;;;;5054304;28;20223;-39
2022/04/12 05:29:50;;;;;;;4.23;2.60;;;4.90;99.90;;;;;;5056772;28;20202;-43
2022/04/12 05:32:17;;;;;;;4.60;2.63;;;5.00;99.90;;;;;;5058815;28;20194;-43
2022/04/12 05:34:45;;;;;;;3.97;2.87;;;5.10;99.90;;;;;;5054262;28;20294;-42
2022/04/12 05:37:12;;;;;;;4.03;2.70;;;5.10;99.90;;;;;;5055237;28;20209;-40
2022/04/12 05:39:38;;;;;;;2.57;2.17;;;5.10;99.90;;;;;;5054674;28;20280;-46
2022/04/12 05:42:07;;;;;;;5.53;2.80;;;5.20;99.90;;;;;;5049247;28;20229;-40
2022/04/12 05:44:34;;;;;;;2.70;2.50;;;5.20;99.90;;;;;;5063585;28;20194;-45
2022/04/12 05:47:03;;;;;;;4.47;2.70;;;5.30;99.90;;;;;;5062274;28;20194;-40
2022/04/12 05:49:30;;;;;;;3.27;2.90;;;5.30;99.90;;;;;;5064246;28;20667;-42
2022/04/12 05:51:58;;;;;;;3.77;2.70;;;5.40;99.90;;;;;;5046697;28;20202;-41
2022/04/12 05:54:24;;;;;;;6.50;2.87;;;5.40;99.90;;;;;;5059226;28;20256;-41
2022/04/12 05:56:51;;;;;;;6.90;2.73;;;5.40;99.90;;;;;;5047999;28;20198;-41
2022/04/12 05:59:21;;;;;;;5.07;2.50;;;5.50;99.90;;;;;;5065004;28;20225;-41
2022/04/12 06:51:11;;;;;;;4.57;2.93;;;6.30;99.90;;;;;;5089212;27;20904;-42
2022/04/12 06:53:38;;;;;;;10.87;3.20;;;7.00;99.90;;;;;;5064912;28;20207;-43
2022/04/12 06:56:06;;;;;;;7.43;2.70;;;7.00;99.90;;;;;;5074275;28;20209;-42
2022/04/12 06:58:33;;;;;;;5.83;2.57;;;7.10;99.90;;;;;;5060183;28;20212;-42
2022/04/12 07:01:00;;;;;;;3.83;2.40;;;7.10;99.90;;;;;;5062091;28;20224;-43
2022/04/12 07:03:27;;;;;;;2.43;2.23;;;7.10;99.90;;;;;;5074390;28;20843;-45
2022/04/12 07:05:56;;;;;;;4.53;2.40;;;7.20;99.90;;;;;;5068309;28;20202;-44
2022/04/12 07:08:24;;;;;;;4.23;2.40;;;7.30;99.90;;;;;;5056856;28;20203;-42
2022/04/12 07:10:52;;;;;;;3.57;2.37;;;7.30;99.90;;;;;;5072792;28;20283;-42
2022/04/12 07:13:19;;;;;;;2.87;2.17;;;7.30;99.90;;;;;;5054860;28;20203;-44
2022/04/12 07:15:46;;;;;;;2.90;2.67;;;7.40;99.90;;;;;;5070916;28;20202;-43
2022/04/12 07:18:13;;;;;;;4.63;2.60;;;7.50;99.90;;;;;;5066426;28;20257;-44
2022/04/12 07:20:40;;;;;;;3.40;2.53;;;7.50;99.90;;;;;;5059377;28;20224;-42
2022/04/12 07:23:07;;;;;;;3.40;2.63;;;7.60;99.90;;;;;;5069135;28;20693;-43
2022/04/12 07:25:35;;;;;;;8.50;3.13;;;7.60;99.90;;;;;;5072462;28;20211;-48
2022/04/12 07:28:02;;;;;;;4.30;2.33;;;7.60;99.90;;;;;;5069374;28;20542;-42
2022/04/12 07:30:29;;;;;;;3.97;2.57;;;7.70;99.90;;;;;;5058136;28;20206;-42
2022/04/12 07:32:55;;;;;;;5.30;2.60;;;7.70;99.90;;;;;;5064840;28;20249;-42
2022/04/12 07:35:22;;;;;;;3.60;2.53;;;7.80;99.90;;;;;;5070799;28;20263;-43
2022/04/12 07:37:51;;;;;;;6.23;2.57;;;7.80;99.90;;;;;;5062791;28;20198;-42
2022/04/12 07:40:18;;;;;;;4.23;2.13;;;7.90;99.90;;;;;;5056567;28;20191;-43
2022/04/12 07:42:46;;;;;;;3.90;2.40;;;8.00;99.90;;;;;;5071743;28;20210;-41
2022/04/12 07:45:13;;;;;;;2.60;2.40;;;8.00;99.90;;;;;;5054880;28;24320;-43
2022/04/12 07:47:40;;;;;;;4.00;2.07;;;8.10;99.90;;;;;;5068086;28;20344;-46
2022/04/12 07:50:07;;;;;;;4.63;2.70;;;8.20;99.90;;;;;;5066411;28;20218;-44
2022/04/12 07:52:34;;;;;;;4.67;2.50;;;8.30;99.90;;;;;;5051484;28;20209;-42
2022/04/12 07:55:01;;;;;;;6.17;2.47;;;8.30;99.90;;;;;;5050635;28;20210;-42
2022/04/12 07:57:29;;;;;;;3.80;2.47;;;8.40;99.90;;;;;;5051675;28;20210;-43
2022/04/12 07:59:57;;;;;;;2.87;2.23;;;8.50;99.90;;;;;;5058942;28;20610;-42
2022/04/12 08:02:24;;;;;;;3.27;2.10;;;8.60;99.90;;;;;;5046947;28;20194;-42
2022/04/12 08:04:51;;;;;;;2.60;2.07;;;8.70;99.90;;;;;;5047968;28;20191;-44
2022/04/12 08:07:18;;;;;;;4.53;2.40;;;;;;;;;;5041783;28;20206;-45
2022/04/12 08:09:45;;;;;;;5.03;2.33;;;8.90;99.90;;;;;;5053989;28;20214;-42
2022/04/12 08:12:11;;;;;;;2.60;2.40;;;9.00;99.90;;;;;;5051976;28;20218;-42
2022/04/12 08:14:38;;;;;;;3.23;2.30;;;9.10;99.90;;;;;;5057290;28;20206;-43
2022/04/12 08:17:06;;;;;;;3.40;2.37;;;9.20;99.90;;;;;;5042368;28;20213;-42
2022/04/12 08:19:33;;;;;;;2.43;2.23;;;9.30;99.90;;;;;;5051610;28;20214;-44
2022/04/12 08:22:01;;;;;;;8.07;2.40;;;9.40;99.90;;;;;;5056645;28;20751;-44
2022/04/12 08:24:28;;;;;;;4.90;2.63;;;9.40;99.90;;;;;;5062974;28;20278;-42
2022/04/12 08:26:55;;;;;;;4.97;2.47;;;9.50;99.90;;;;;;5053273;28;20238;-42
2022/04/12 08:29:22;;;;;;;3.33;2.30;;;9.50;99.90;;;;;;5047796;28;20253;-42
2022/04/12 08:31:48;;;;;;;2.27;2.07;;;9.60;99.90;;;;;;5065701;28;20691;-42
2022/04/12 08:34:16;;;;;;;3.90;2.43;;;9.70;99.90;;;;;;5050725;28;20206;-42
2022/04/12 08:36:43;;;;;;;4.90;2.30;;;9.80;99.90;;;;;;5036628;28;20202;-42
2022/04/12 08:39:10;;;;;;;4.83;2.53;;;9.80;99.90;;;;;;5057005;28;20200;-42
2022/04/12 08:41:40;;;;;;;2.03;1.93;;;9.90;99.90;;;;;;5047807;28;20211;-42
2022/04/12 08:44:08;;;;;;;4.07;2.60;;;10.10;99.90;;;;;;5048485;28;20208;-42
2022/04/12 08:46:37;;;;;;;3.13;2.83;;;10.20;99.90;;;;;;5046517;28;20203;-41
2022/04/12 08:49:05;;;;;;;2.93;2.63;;;10.20;99.90;;;;;;5045691;28;20288;-42
2022/04/12 08:51:35;;;;;;;4.70;2.50;;;10.30;99.90;;;;;;5060768;28;20215;-42
2022/04/12 08:54:05;;;;;;;2.83;2.47;;;10.50;99.90;;;;;;5044400;28;21133;-41
2022/04/12 08:56:33;;;;;;;4.17;2.20;;;10.60;99.90;;;;;;5041815;28;20214;-42
2022/04/12 08:59:00;;;;;;;4.37;2.40;;;10.70;99.90;;;;;;5057221;28;20668;-41
2022/04/12 09:01:29;;;;;;;3.60;2.57;;;10.80;99.90;;;;;;5030587;28;20227;-43
2022/04/12 09:03:55;;;;;;;2.50;2.30;;;11.00;99.90;;;;;;5054650;28;20214;-43
2022/04/12 09:06:22;;;;;;;3.23;2.37;;;11.10;99.90;;;;;;5047081;28;20532;-41
2022/04/12 09:08:50;;;;;;;6.83;2.83;;;11.30;99.90;;;;;;5060799;28;20197;-45
2022/04/12 09:11:17;;;;;;;3.93;2.97;;;11.40;99.60;;;;;;5046354;28;20272;-41
2022/04/12 09:13:59;;;;;;;3.60;2.90;;;11.50;99.40;;;;;;5042341;28;20202;-41
2022/04/12 09:16:28;;;;;;;4.30;2.80;;;11.70;99.10;;;;;;5035101;28;20211;-42
2022/04/12 09:18:55;;;;;;;4.30;3.33;;;11.70;98.60;;;;;;5052641;28;20207;-42
2022/04/12 09:21:23;;;;;;;3.67;2.50;;;11.70;98.50;;;;;;5044531;28;20218;-42
2022/04/12 09:23:53;;;;;;;4.63;3.50;;;11.80;98.60;;;;;;5056524;28;20198;-41
2022/04/12 09:26:24;;;;;;;4.93;3.00;;;12.00;97.90;;;;;;5057926;28;20191;-46
2022/04/12 09:28:52;;;;;;;5.33;3.47;;;12.10;97.40;;;;;;5050817;28;20214;-41
2022/04/12 09:31:20;;;;;;;5.07;3.30;;;12.20;96.50;;;;;;5049270;28;20229;-44
2022/04/12 09:33:48;;;;;;;6.30;3.40;;;12.40;95.80;;;;;;5045283;28;20272;-45
2022/04/12 09:36:15;;;;;;;4.53;3.97;;;12.60;94.90;;;;;;5035899;28;20207;-42
2022/04/12 09:38:45;;;;;;;7.77;4.17;;;12.80;94.10;;;;;;5056788;28;20205;-47
2022/04/12 09:41:19;;;;;;;4.77;3.63;;;12.90;94.60;;;;;;5056825;28;21033;-42
2022/04/12 09:44:05;;;;;;;5.90;3.50;;;13.10;92.70;;;;;;5043318;28;20206;-45
2022/04/12 09:46:33;;;;;;;3.73;3.37;;;13.20;92.00;;;;;;5048008;28;20203;-46
2022/04/12 09:49:00;;;;;;;7.17;4.17;;;13.30;91.80;;;;;;5051082;28;20203;-43
2022/04/12 09:51:27;;;;;;;5.80;3.93;;;13.20;91.50;;;;;;5048679;28;20944;-44
2022/04/12 09:53:54;;;;;;;5.63;3.93;;;13.20;91.20;;;;;;5051605;28;20217;-47
2022/04/12 09:56:25;;;;;;;7.03;4.30;;;13.30;90.90;;;;;;5057200;28;20193;-42
2022/04/12 09:58:53;;;;;;;6.87;4.07;;;13.40;90.60;;;;;;5058624;28;20523;-42
2022/04/12 10:01:22;;;;;;;8.20;4.83;;;13.50;90.50;;;;;;5043686;28;20217;-41
2022/04/12 10:03:50;;;;;;;4.10;3.40;;;13.60;87.80;;;;;;5051908;28;20203;-43
2022/04/12 10:06:23;;;;;;;6.27;4.40;;;13.60;86.50;;;;;;5044885;28;20205;-42
2022/04/12 10:08:55;;;;;;;6.27;4.53;;;13.60;85.40;;;;;;5060614;28;20563;-42
2022/04/12 10:11:24;;;;;;;5.70;4.47;;;13.70;84.10;;;;;;5051506;28;20261;-43
2022/04/12 10:13:51;;;;;;;7.03;4.43;;;13.80;81.30;;;;;;5061241;28;20649;-43
2022/04/12 10:16:19;;;;;;;8.17;4.77;;;13.80;82.40;;;;;;5050059;28;20199;-41
2022/04/12 10:18:48;;;;;;;5.63;4.60;;;13.80;82.50;;;;;;5045073;28;20213;-43
2022/04/12 10:21:16;;;;;;;6.70;4.67;;;13.90;83.50;;;;;;5049837;28;20561;-45
2022/04/12 10:23:44;;;;;;;8.43;4.97;;;14.00;83.20;;;;;;5061029;28;20198;-41
2022/04/12 10:26:12;;;;;;;8.67;5.27;;;14.10;81.00;;;;;;5056415;28;20569;-42
2022/04/12 10:28:41;;;;;;;5.93;4.70;;;14.20;81.30;;;;;;5048189;28;20195;-45
2022/04/12 10:31:23;;;;;;;8.33;5.20;;;14.20;79.50;;;;;;5045932;28;20225;-42
2022/04/12 10:34:03;;;;;;;6.30;4.80;;;14.20;76.90;;;;;;5056586;28;20918;-42
2022/04/12 10:36:58;;;;;;;7.37;5.10;;;14.10;76.30;;;;;;5039948;28;20971;-45
2022/04/12 10:39:30;;;;;;;5.87;5.00;;;13.90;75.40;;;;;;5031954;28;20318;-42
2022/04/12 10:41:58;;;;;;;7.97;4.60;;;13.90;75.50;;;;;;5047778;28;20215;-40
2022/04/12 10:44:26;;;;;;;6.63;5.47;;;13.90;75.50;;;;;;5051501;28;20197;-41
2022/04/12 10:46:53;;;;;;;8.73;5.43;;;13.90;75.30;;;;;;5051882;28;20206;-42
2022/04/12 10:49:21;;;;;;;6.47;4.97;;;14.00;75.60;;;;;;5042847;28;20222;-41
2022/04/12 10:51:56;;;;;;;7.37;5.60;;;14.10;75.20;;;;;;5043718;28;20227;-42
2022/04/12 10:54:31;;;;;;;5.43;4.33;;;14.10;74.50;;;;;;5045133;28;20206;-42
2022/04/12 10:57:22;;;;;;;8.37;4.70;;;14.10;74.60;;;;;;5057187;28;20194;-43
2022/04/12 10:59:52;;;;;;;5.40;4.73;;;14.20;74.40;;;;;;5050764;28;20708;-42
2022/04/12 11:02:19;;;;;;;5.97;5.30;;;14.10;74.80;;;;;;5052457;28;20229;-42
2022/04/12 11:04:46;;;;;;;7.97;5.00;;;14.10;75.90;;;;;;5048207;28;20206;-42
2022/04/12 11:07:32;;;;;;;6.13;4.53;;;14.10;76.10;;;;;;5051878;28;20209;-42
2022/04/12 11:10:19;;;;;;;4.93;4.40;;;14.30;76.00;;;;;;5048254;28;20904;-42
2022/04/12 11:12:46;;;;;;;6.37;4.90;;;14.50;73.30;;;;;;5049047;28;20300;-43
2022/04/12 11:15:25;;;;;;;6.17;4.90;;;14.60;74.60;;;;;;5052658;28;20207;-41
2022/04/12 11:18:06;;;;;;;6.77;4.80;;;14.60;74.60;;;;;;5050790;28;20207;-41
2022/04/12 11:20:33;;;;;;;8.47;4.23;;;14.80;75.70;;;;;;5045327;28;20297;-41
2022/04/12 11:23:04;;;;;;;6.77;4.60;;;14.90;74.00;;;;;;5052244;28;20546;-42
2022/04/12 11:25:31;;;;;;;7.00;4.90;;;14.80;73.60;;;;;;5040078;28;20208;-40
2022/04/12 11:27:58;;;;;;;5.40;4.30;;;14.90;74.30;;;;;;5062641;28;20269;-40
2022/04/12 11:30:27;;;;;;;5.10;4.43;;;15.00;74.40;;;;;;5054101;28;20718;-43
2022/04/12 11:32:54;;;;;;;7.47;5.17;;;15.10;73.90;;;;;;5055047;28;20326;-45
2022/04/12 11:35:22;;;;;;;5.80;4.13;;;15.10;72.80;;;;;;5038896;28;20222;-45
2022/04/12 11:37:50;;;;;;;6.27;4.70;;;15.10;72.40;;;;;;5054308;28;20219;-43
2022/04/12 11:40:17;;;;;;;4.87;4.03;;;15.20;73.00;;;;;;5042765;28;20198;-42
2022/04/12 11:42:44;;;;;;;6.80;5.20;;;15.20;72.00;;;;;;5060719;28;20203;-42
2022/04/12 11:45:12;;;;;;;5.70;4.53;;;15.30;71.60;;;;;;5058198;28;20230;-41
2022/04/12 11:47:44;;;;;;;7.10;5.20;;;15.40;72.30;;;;;;5056868;28;20213;-41
2022/04/12 11:50:15;;;;;;;5.13;4.33;;;15.50;71.90;;;;;;5056704;28;20207;-45
2022/04/12 11:52:43;;;;;;;5.90;4.10;;;15.50;71.50;;;;;;5049284;28;20745;-43
2022/04/12 11:55:11;;;;;;;6.23;4.43;;;15.60;72.00;;;;;;5049893;28;20199;-41
2022/04/12 11:57:37;;;;;;;7.13;5.00;;;15.70;70.80;;;;;;5049830;28;20206;-41
2022/04/12 12:00:06;;;;;;;5.70;4.40;;;15.80;70.00;;;;;;5057712;28;20203;-41
2022/04/12 12:02:38;;;;;;;7.13;4.63;;;15.80;71.00;;;;;;5053379;28;20203;-41
2022/04/12 12:05:09;;;;;;;5.90;4.67;;;15.80;70.50;;;;;;5054163;28;20214;-41
2022/04/12 12:07:37;;;;;;;6.20;5.03;;;15.80;68.90;;;;;;5039551;28;20943;-41
2022/04/12 12:10:06;;;;;;;5.47;4.40;;;15.70;69.20;;;;;;5050253;28;20270;-40
2022/04/12 12:12:34;;;;;;;7.73;4.23;;;15.80;70.10;;;;;;5051801;28;20843;-42
2022/04/12 12:15:13;;;;;;;4.73;4.27;;;15.90;70.50;;;;;;5050901;28;20187;-42
2022/04/12 12:17:40;;;;;;;5.53;4.53;;;16.00;68.90;;;;;;5052378;28;20221;-44
2022/04/12 12:20:09;;;;;;;5.20;4.30;;;16.00;68.30;;;;;;5053691;28;20202;-41
2022/04/12 12:22:37;;;;;;;5.53;4.40;;;16.10;68.70;;;;;;5055362;28;20190;-42
2022/04/12 12:25:05;;;;;;;7.40;4.77;;;16.10;69.00;;;;;;5053657;28;20240;-43
2022/04/12 12:27:34;;;;;;;7.83;4.97;;;16.20;68.20;;;;;;5048552;28;20199;-43
2022/04/12 12:30:04;;;;;;;6.30;4.93;;;16.20;67.70;;;;;;5060857;28;20202;-46
2022/04/12 12:32:32;;;;;;;6.03;4.83;;;16.30;68.10;;;;;;5047173;28;20199;-42
2022/04/12 12:35:03;;;;;;;6.63;5.20;;;16.30;67.90;;;;;;5057510;28;20211;-44
2022/04/12 12:37:31;;;;;;;5.07;4.57;;;16.40;65.70;;;;;;5041220;28;20285;-40
2022/04/12 12:39:58;;;;;;;9.03;4.87;;;16.40;67.90;;;;;;5051653;28;20209;-40
2022/04/12 12:42:25;;;;;;;5.80;5.10;;;16.50;67.60;;;;;;5048930;28;20747;-41
2022/04/12 12:44:51;;;;;;;7.37;4.80;;;16.50;67.10;;;;;;5058129;28;20288;-42
2022/04/12 12:47:22;;;;;;;7.93;5.13;;;16.60;66.30;;;;;;5057625;28;20199;-41
2022/04/12 12:49:51;;;;;;;7.03;4.87;;;16.60;66.30;;;;;;5058044;28;20324;-41
2022/04/12 12:52:18;;;;;;;8.27;5.37;;;16.70;65.40;;;;;;5051797;28;20222;-40
2022/04/12 12:54:56;;;;;;;6.77;5.17;;;16.70;65.20;;;;;;5048640;28;20218;-41
2022/04/12 12:57:36;;;;;;;5.27;4.70;;;16.90;65.10;;;;;;5042331;28;20218;-45
2022/04/12 13:00:06;;;;;;;5.93;4.77;;;17.10;64.40;;;;;;5052742;28;20206;-41
2022/04/12 13:02:34;;;;;;;8.60;5.27;;;17.20;63.50;;;;;;5046786;28;20657;-42
2022/04/12 13:05:03;;;;;;;5.37;4.60;;;17.20;63.20;;;;;;5051835;28;20198;-41
2022/04/12 13:07:32;;;;;;;5.73;4.67;;;17.20;64.10;;;;;;5046663;28;20318;-41
2022/04/12 13:10:09;;;;;;;5.73;4.83;;;17.40;63.60;;;;;;5043640;28;20211;-43
2022/04/12 13:12:37;;;;;;;5.47;4.97;;;17.60;62.50;;;;;;5049943;28;20305;-40
2022/04/12 13:15:04;;;;;;;8.03;5.37;;;17.60;61.90;;;;;;5049878;28;20196;-41
2022/04/12 13:17:31;;;;;;;7.90;5.30;;;17.70;61.30;;;;;;5050755;28;20596;-44
2022/04/12 13:19:58;;;;;;;5.77;5.03;;;17.80;61.10;;;;;;5048364;28;20563;-43
2022/04/12 13:22:25;;;;;;;6.93;5.60;;;17.90;60.00;;;;;;5043611;28;20199;-41
2022/04/12 13:24:52;;;;;;;5.73;5.07;;;18.10;60.50;;;;;;5048357;28;20199;-42
2022/04/12 13:27:21;;;;;;;7.50;5.27;;;18.30;60.30;;;;;;5043038;28;20208;-39
2022/04/12 13:29:48;;;;;;;6.50;5.57;;;18.50;59.20;;;;;;5045235;28;20202;-39
2022/04/12 13:32:15;;;;;;;8.30;5.17;;;18.40;59.30;;;;;;5046151;28;20222;-46
2022/04/12 13:34:42;;;;;;;7.17;5.23;;;18.40;59.20;;;;;;5063917;28;20210;-44
2022/04/12 13:37:10;;;;;;;7.93;6.10;;;18.30;59.50;;;;;;5046415;28;20864;-41
2022/04/12 13:39:37;;;;;;;6.73;5.17;;;18.30;58.50;;;;;;5040004;28;20206;-42
2022/04/12 13:42:05;;;;;;;7.97;6.07;;;18.30;58.40;;;;;;5048419;28;20219;-41
2022/04/12 13:44:34;;;;;;;7.90;5.33;;;18.20;58.50;;;;;;5040084;28;20638;-41
2022/04/12 13:47:01;;;;;;;5.77;5.17;;;18.10;58.60;;;;;;5046357;28;20201;-42
2022/04/12 13:49:28;;;;;;;6.93;6.07;;;18.30;59.10;;;;;;5043118;28;20198;-43